Terminal Aerodrome Forecast
Issued by NWS

Home | Current Version | Previous Version | Text Only | Print | Product List | Glossary On
Versions: 1 2 3 4 5 6 7 8 9 10 11 12 13 14 15 16
695
FTUS42 KKEY 122329
TAFMTH
TAF
KMTH 122329Z 1300/1324 27010KT P6SM SCT050
     FM130200 32012G17KT P6SM BKN050
      TEMPO 1302/1304 BKN050
     FM131500 36010KT P6SM SCT020=

USA.gov is the U.S. government's official web portal to all federal, state and local government web resources and services.